Time;durP1;ratioP1;P1;durP2;ratioP2;P2;SDS_P1;SDS_P2;PMS_P1;PMS_P2;Temp;Humidity;BMP_temperature;BMP_pressure;BME280_temperature;BME280_humidity;BME280_pressure;Samples;Min_cycle;Max_cycle;Signal;HPM_P1;HPM_P2
2021/01/13 00:00:21;;;;;;;1.25;0.50;;;20.60;43.40;;;;;;5090650;28;20021;-58
2021/01/13 00:02:47;;;;;;;2.22;0.65;;;20.60;43.30;;;;;;5091286;28;20526;-58
2021/01/13 00:05:15;;;;;;;3.63;0.80;;;20.60;43.30;;;;;;5090468;28;20016;-58
2021/01/13 00:07:42;;;;;;;3.63;0.70;;;20.60;43.30;;;;;;5089696;28;20077;-58
2021/01/13 00:10:09;;;;;;;1.25;0.70;;;20.60;43.30;;;;;;5069654;28;20042;-59
2021/01/13 00:12:36;;;;;;;2.55;0.90;;;20.60;43.90;;;;;;5089840;28;20413;-58
2021/01/13 00:15:07;;;;;;;1.15;0.65;;;20.60;43.20;;;;;;5088186;28;20028;-58
2021/01/13 00:17:33;;;;;;;0.93;0.50;;;20.60;43.10;;;;;;5088207;28;20019;-58
2021/01/13 00:19:59;;;;;;;1.35;0.47;;;20.60;43.10;;;;;;5087919;28;20017;-58
2021/01/13 00:22:24;;;;;;;2.10;0.70;;;20.60;43.10;;;;;;5087089;28;20028;-58
2021/01/13 00:24:52;;;;;;;0.90;0.60;;;20.60;43.10;;;;;;5089677;28;20103;-59
2021/01/13 00:27:21;;;;;;;1.10;0.60;;;20.60;43.10;;;;;;5089727;28;20056;-59
2021/01/13 00:29:55;;;;;;;1.80;0.52;;;20.60;43.10;;;;;;5089452;28;20024;-58
2021/01/13 00:32:21;;;;;;;1.60;0.60;;;20.60;43.00;;;;;;5087725;28;20028;-58
2021/01/13 00:34:47;;;;;;;1.63;0.70;;;20.60;43.00;;;;;;5089401;28;20463;-58
2021/01/13 00:37:13;;;;;;;1.35;0.60;;;20.60;43.00;;;;;;5090156;28;20473;-58
2021/01/13 00:39:39;;;;;;;1.60;0.63;;;20.60;43.00;;;;;;5089195;28;20464;-58
2021/01/13 00:42:05;;;;;;;1.17;0.68;;;20.60;43.00;;;;;;5089979;28;20036;-58
2021/01/13 00:44:31;;;;;;;1.00;0.50;;;20.60;42.90;;;;;;5090018;28;20509;-58
2021/01/13 00:46:57;;;;;;;1.33;0.50;;;20.60;43.00;;;;;;5091774;28;20644;-58
2021/01/13 00:49:22;;;;;;;3.22;0.70;;;20.60;42.90;;;;;;5093534;28;20110;-58
2021/01/13 00:51:48;;;;;;;1.25;0.73;;;20.60;42.90;;;;;;5088992;28;20055;-58
2021/01/13 00:54:14;;;;;;;1.85;0.55;;;20.60;43.50;;;;;;5091860;28;20398;-58
2021/01/13 00:56:46;;;;;;;1.40;1.30;;;20.60;42.90;;;;;;5092885;28;20127;-59
2021/01/13 00:59:12;;;;;;;2.10;0.70;;;20.60;42.80;;;;;;5091380;28;20089;-58
2021/01/13 01:01:40;;;;;;;1.27;0.70;;;20.60;42.80;;;;;;5093797;28;20051;-59
2021/01/13 01:04:06;;;;;;;1.48;0.60;;;20.60;42.80;;;;;;5075104;28;20516;-58
2021/01/13 01:06:32;;;;;;;0.93;0.60;;;20.60;42.80;;;;;;5093705;28;20016;-58
2021/01/13 01:08:58;;;;;;;1.75;0.68;;;20.60;42.70;;;;;;5092460;28;20016;-58
2021/01/13 01:11:33;;;;;;;2.60;0.77;;;20.60;43.30;;;;;;5093358;28;20023;-58
2021/01/13 01:13:59;;;;;;;1.83;0.60;;;20.70;42.70;;;;;;5089463;28;20063;-58
2021/01/13 01:16:30;;;;;;;2.63;0.60;;;20.60;42.60;;;;;;5093293;28;20040;-58
2021/01/13 01:18:56;;;;;;;1.92;0.70;;;20.70;42.70;;;;;;5092343;28;20009;-58
2021/01/13 01:21:22;;;;;;;1.23;0.70;;;20.70;42.60;;;;;;5091603;28;20138;-58
2021/01/13 01:23:47;;;;;;;2.08;0.73;;;20.70;42.60;;;;;;5092533;28;20020;-58
2021/01/13 01:26:13;;;;;;;2.53;0.70;;;20.70;42.50;;;;;;5089404;28;20031;-58
2021/01/13 01:28:39;;;;;;;0.85;0.45;;;20.70;42.50;;;;;;5091991;28;20044;-59
2021/01/13 01:31:04;;;;;;;2.72;0.73;;;20.70;42.50;;;;;;5092801;28;20028;-58
2021/01/13 01:33:30;;;;;;;1.95;0.60;;;20.70;42.50;;;;;;5092788;28;20449;-58
2021/01/13 01:35:56;;;;;;;0.65;0.50;;;20.70;42.50;;;;;;5092412;28;20020;-58
2021/01/13 01:38:21;;;;;;;3.05;0.70;;;20.70;42.50;;;;;;5092756;28;20365;-58
2021/01/13 01:40:47;;;;;;;1.05;0.70;;;20.70;42.50;;;;;;5092738;28;20036;-58
2021/01/13 01:43:13;;;;;;;2.45;0.52;;;20.60;42.40;;;;;;5092902;28;20059;-58
2021/01/13 01:45:38;;;;;;;1.70;0.65;;;20.60;42.40;;;;;;5089214;28;20024;-59
2021/01/13 01:48:09;;;;;;;1.85;0.60;;;20.70;42.50;;;;;;5092327;28;20032;-58
2021/01/13 01:50:37;;;;;;;1.07;0.50;;;20.60;42.40;;;;;;5070028;28;20371;-58
2021/01/13 01:53:15;;;;;;;0.60;0.47;;;20.60;42.40;;;;;;5091606;28;20028;-58
2021/01/13 01:56:05;;;;;;;0.77;0.40;;;20.60;42.40;;;;;;5087182;28;20020;-58
2021/01/13 01:58:32;;;;;;;1.75;0.63;;;20.60;42.40;;;;;;5089236;28;20034;-58
2021/01/13 02:00:59;;;;;;;2.78;0.63;;;20.60;42.40;;;;;;5092480;28;20039;-58
2021/01/13 02:03:46;;;;;;;2.33;0.80;;;20.60;42.40;;;;;;5092549;28;20422;-59
2021/01/13 02:06:15;;;;;;;1.58;0.43;;;20.60;42.40;;;;;;5090054;28;20423;-59
2021/01/13 02:08:41;;;;;;;1.67;0.60;;;20.60;42.40;;;;;;5092985;28;20056;-59
2021/01/13 02:11:19;;;;;;;1.73;0.60;;;20.60;42.40;;;;;;5092148;28;20101;-59
2021/01/13 02:13:46;;;;;;;1.40;0.60;;;20.70;42.40;;;;;;5091312;28;20054;-59
2021/01/13 02:16:14;;;;;;;3.63;0.80;;;20.60;42.40;;;;;;5073837;28;20032;-58
2021/01/13 02:18:45;;;;;;;3.13;0.60;;;20.60;42.30;;;;;;5091551;28;20440;-59
2021/01/13 02:21:15;;;;;;;1.15;0.70;;;20.60;42.30;;;;;;5089412;28;20469;-58
2021/01/13 02:23:54;;;;;;;0.93;0.60;;;20.60;42.30;;;;;;5091313;28;20103;-58
2021/01/13 02:26:58;;;;;;;2.38;0.63;;;20.60;42.60;;;;;;5087699;28;20028;-59
2021/01/13 02:29:34;;;;;;;1.30;0.60;;;20.60;42.40;;;;;;5091501;28;20066;-58
2021/01/13 02:32:20;;;;;;;2.45;0.60;;;20.60;42.30;;;;;;5091356;28;20019;-58
2021/01/13 02:35:17;;;;;;;3.08;0.80;;;20.60;42.30;;;;;;5090512;28;20028;-58
2021/01/13 02:37:44;;;;;;;1.55;0.60;;;20.60;42.30;;;;;;5093780;28;20027;-58
2021/01/13 02:40:16;;;;;;;2.15;0.50;;;20.60;42.30;;;;;;5088940;28;20024;-58
2021/01/13 02:42:46;;;;;;;;;;;20.60;42.30;;;;;;5091335;28;20472;-58
2021/01/13 02:45:16;;;;;;;1.05;0.50;;;20.60;42.30;;;;;;5088446;28;19908;-58
2021/01/13 02:47:56;;;;;;;0.77;0.50;;;20.60;42.30;;;;;;5088085;28;20028;-59
2021/01/13 02:50:24;;;;;;;0.80;0.55;;;20.60;42.30;;;;;;5090437;28;20066;-58
2021/01/13 02:53:05;;;;;;;1.05;0.50;;;20.60;43.00;;;;;;5088162;28;20032;-58
2021/01/13 02:55:35;;;;;;;1.13;0.60;;;20.60;42.30;;;;;;5082815;28;20500;-58
2021/01/13 02:58:05;;;;;;;1.23;0.73;;;20.60;42.20;;;;;;5072210;28;20032;-58
2021/01/13 03:00:31;;;;;;;0.98;0.40;;;20.70;42.20;;;;;;5102393;28;20086;-59
2021/01/13 03:03:00;;;;;;;1.67;0.50;;;20.70;42.30;;;;;;5091815;28;20088;-58
2021/01/13 03:05:27;;;;;;;3.13;0.60;;;20.60;42.20;;;;;;5092571;28;20115;-58
2021/01/13 03:07:55;;;;;;;0.93;0.47;;;20.70;42.20;;;;;;5091821;28;20028;-58
2021/01/13 03:10:25;;;;;;;0.60;0.50;;;20.60;42.20;;;;;;5089814;28;20095;-58
2021/01/13 03:12:58;;;;;;;0.98;0.40;;;20.60;42.20;;;;;;5112156;28;20034;-58
2021/01/13 03:15:27;;;;;;;1.83;0.63;;;20.60;42.10;;;;;;5112816;28;20039;-58
2021/01/13 03:18:07;;;;;;;1.50;0.50;;;20.60;42.20;;;;;;5111970;28;20043;-59
2021/01/13 03:20:49;;;;;;;1.38;0.65;;;20.70;42.20;;;;;;5109439;28;20035;-58
2021/01/13 03:23:34;;;;;;;2.58;0.43;;;20.60;42.10;;;;;;5112497;28;20479;-58
2021/01/13 03:26:04;;;;;;;1.83;0.60;;;20.70;42.10;;;;;;5111724;28;20027;-58
2021/01/13 03:28:36;;;;;;;1.95;0.70;;;20.70;42.10;;;;;;5112528;28;20060;-58
2021/01/13 03:31:03;;;;;;;1.02;0.60;;;20.70;42.10;;;;;;5076556;28;20023;-58
2021/01/13 03:33:50;;;;;;;2.08;0.60;;;20.70;42.10;;;;;;5091823;28;20036;-58
2021/01/13 03:36:36;;;;;;;2.33;0.60;;;20.70;42.10;;;;;;5092034;28;20089;-58
2021/01/13 03:39:06;;;;;;;2.83;0.73;;;20.70;42.10;;;;;;5094764;28;20023;-58
2021/01/13 03:41:54;;;;;;;1.42;0.60;;;20.70;42.10;;;;;;5091978;28;20024;-58
2021/01/13 03:44:27;;;;;;;0.80;0.40;;;20.70;42.00;;;;;;5092028;28;20077;-58
2021/01/13 03:46:55;;;;;;;1.70;0.80;;;20.70;42.00;;;;;;5073194;28;20028;-58
2021/01/13 03:49:34;;;;;;;1.80;0.80;;;20.70;42.00;;;;;;5091476;28;20036;-58
2021/01/13 03:52:04;;;;;;;1.20;0.40;;;20.70;42.00;;;;;;5090897;28;20077;-58
2021/01/13 03:54:34;;;;;;;1.40;0.60;;;20.70;42.00;;;;;;5073766;28;20024;-58
2021/01/13 03:57:07;;;;;;;4.82;0.98;;;20.70;42.00;;;;;;5091133;28;20020;-58
2021/01/13 03:59:45;;;;;;;2.10;0.50;;;20.70;42.00;;;;;;5092267;28;20039;-58
2021/01/13 04:02:23;;;;;;;1.08;0.50;;;20.70;42.00;;;;;;5091536;28;20095;-58
2021/01/13 04:05:11;;;;;;;3.50;0.90;;;20.70;42.00;;;;;;5089609;28;20511;-59
2021/01/13 04:07:38;;;;;;;1.35;0.52;;;20.70;42.00;;;;;;5091539;28;20036;-58
2021/01/13 04:10:14;;;;;;;1.25;0.43;;;20.70;42.00;;;;;;5103406;28;20067;-58
2021/01/13 04:13:06;;;;;;;2.30;0.60;;;20.70;42.00;;;;;;5111497;28;20469;-58
2021/01/13 04:15:37;;;;;;;1.13;0.50;;;20.70;42.00;;;;;;5087035;28;20376;-58
2021/01/13 04:18:09;;;;;;;1.87;1.23;;;20.70;42.00;;;;;;5070870;28;20121;-58
2021/01/13 04:20:36;;;;;;;1.48;0.47;;;20.70;41.90;;;;;;5104053;28;20027;-58
2021/01/13 04:23:04;;;;;;;0.63;0.47;;;20.70;41.90;;;;;;5101154;28;20940;-58
2021/01/13 04:25:30;;;;;;;0.95;0.63;;;20.70;41.90;;;;;;5095402;28;20028;-58
2021/01/13 04:27:56;;;;;;;2.08;0.60;;;20.70;41.90;;;;;;5094465;28;20101;-58
2021/01/13 04:30:25;;;;;;;0.70;0.40;;;20.70;41.90;;;;;;5112379;28;20031;-58
2021/01/13 04:32:55;;;;;;;2.60;0.90;;;20.70;41.90;;;;;;5109520;28;20028;-58
2021/01/13 04:35:22;;;;;;;1.27;0.57;;;20.70;41.90;;;;;;5075134;28;20067;-58
2021/01/13 04:37:53;;;;;;;0.77;0.55;;;20.70;41.90;;;;;;5074048;28;20020;-59
2021/01/13 04:40:39;;;;;;;1.90;0.70;;;20.70;41.80;;;;;;5095844;28;20086;-58
2021/01/13 04:43:10;;;;;;;1.42;0.45;;;20.70;41.80;;;;;;5094570;28;20035;-58
2021/01/13 04:45:44;;;;;;;1.50;0.80;;;20.70;41.80;;;;;;5095344;28;20028;-58
2021/01/13 04:48:15;;;;;;;1.33;0.50;;;20.70;41.80;;;;;;5095026;28;20028;-58
2021/01/13 04:50:42;;;;;;;1.23;0.60;;;20.70;41.80;;;;;;5113260;28;20028;-58
2021/01/13 04:53:10;;;;;;;3.42;0.60;;;20.70;41.80;;;;;;5115056;28;20114;-58
2021/01/13 04:55:46;;;;;;;1.92;0.60;;;20.70;41.80;;;;;;5115598;28;20031;-58
2021/01/13 04:58:20;;;;;;;1.13;0.60;;;20.70;41.80;;;;;;5115411;28;20035;-58
2021/01/13 05:01:15;;;;;;;2.08;0.65;;;20.70;41.80;;;;;;5111598;28;20030;-59
2021/01/13 05:03:43;;;;;;;2.25;0.73;;;20.70;41.70;;;;;;5014829;28;20042;-59
2021/01/13 05:06:36;;;;;;;1.15;0.75;;;20.70;41.70;;;;;;5094870;28;20027;-58
2021/01/13 05:09:09;;;;;;;1.77;0.60;;;20.70;41.70;;;;;;5076935;28;20115;-58
2021/01/13 05:11:47;;;;;;;2.83;0.93;;;20.70;41.70;;;;;;5094864;28;20114;-58
2021/01/13 05:14:14;;;;;;;1.83;0.60;;;20.70;41.70;;;;;;5094785;28;20042;-58
2021/01/13 05:17:01;;;;;;;2.05;0.60;;;20.70;41.70;;;;;;5094863;28;20024;-58
2021/01/13 05:19:30;;;;;;;4.03;0.70;;;20.80;41.70;;;;;;5074381;28;20036;-58
2021/01/13 05:21:57;;;;;;;1.67;0.75;;;20.80;41.70;;;;;;5073551;28;20365;-58
2021/01/13 05:24:25;;;;;;;0.90;0.52;;;20.70;41.60;;;;;;5074235;28;20024;-58
2021/01/13 05:27:04;;;;;;;0.75;0.50;;;20.80;41.70;;;;;;5075581;28;20131;-59
2021/01/13 05:29:38;;;;;;;2.40;0.70;;;20.70;41.60;;;;;;5114920;28;20036;-58
2021/01/13 05:32:06;;;;;;;1.95;0.70;;;20.70;41.70;;;;;;5113618;28;20081;-58
2021/01/13 05:34:34;;;;;;;1.00;0.50;;;20.80;41.60;;;;;;5083382;28;20067;-58
2021/01/13 05:37:15;;;;;;;1.23;0.60;;;20.70;41.60;;;;;;5073305;28;20024;-59
2021/01/13 05:39:42;;;;;;;2.25;0.60;;;20.80;41.60;;;;;;5079305;28;20485;-58
2021/01/13 05:42:09;;;;;;;2.03;0.70;;;20.80;41.60;;;;;;5093324;28;20020;-59
2021/01/13 05:44:35;;;;;;;0.65;0.55;;;20.70;41.60;;;;;;5094457;28;20089;-59
2021/01/13 05:47:02;;;;;;;1.63;0.60;;;20.80;41.60;;;;;;5093282;28;20026;-58
2021/01/13 05:49:29;;;;;;;1.17;0.52;;;20.80;41.60;;;;;;5094164;28;20032;-58
2021/01/13 05:52:03;;;;;;;1.95;0.80;;;20.80;41.60;;;;;;5093952;28;20073;-59
2021/01/13 05:54:32;;;;;;;1.40;0.70;;;20.80;41.60;;;;;;5095956;28;20039;-58
2021/01/13 05:56:59;;;;;;;2.00;0.98;;;20.80;41.60;;;;;;5113476;28;20020;-59
2021/01/13 05:59:30;;;;;;;1.50;0.70;;;20.80;41.60;;;;;;5114258;28;20035;-58
2021/01/13 06:02:04;;;;;;;1.38;0.60;;;20.80;41.50;;;;;;5111749;28;20031;-58
2021/01/13 06:04:30;;;;;;;1.60;0.65;;;20.80;41.60;;;;;;5093610;28;20062;-58
2021/01/13 06:07:06;;;;;;;1.10;0.63;;;20.80;41.60;;;;;;5074552;28;20384;-59
2021/01/13 06:09:43;;;;;;;2.85;0.80;;;20.80;42.20;;;;;;5092192;28;20020;-58
2021/01/13 06:12:17;;;;;;;1.98;0.90;;;20.80;41.50;;;;;;5090561;28;20047;-58
2021/01/13 06:14:46;;;;;;;1.15;0.40;;;20.80;41.50;;;;;;5091852;28;20033;-58
2021/01/13 06:17:22;;;;;;;2.45;0.68;;;20.80;41.50;;;;;;5092571;28;20456;-58
2021/01/13 06:19:52;;;;;;;1.08;0.70;;;20.80;41.50;;;;;;5089098;28;20073;-59
2021/01/13 06:22:29;;;;;;;1.33;0.68;;;20.80;41.50;;;;;;5087945;28;20047;-58
2021/01/13 06:25:04;;;;;;;2.60;0.75;;;20.80;41.50;;;;;;5090009;28;20369;-58
2021/01/13 06:27:57;;;;;;;2.03;0.60;;;20.80;41.40;;;;;;5086712;28;20497;-58
2021/01/13 06:30:28;;;;;;;2.50;1.10;;;20.80;41.40;;;;;;5091952;28;20024;-58
2021/01/13 06:33:04;;;;;;;1.40;0.60;;;20.80;41.40;;;;;;5074247;28;20059;-59
2021/01/13 06:35:41;;;;;;;0.73;0.43;;;20.80;41.40;;;;;;5089839;28;20428;-59
2021/01/13 06:38:16;;;;;;;2.50;0.90;;;20.80;41.40;;;;;;5086109;28;20028;-58
2021/01/13 06:40:43;;;;;;;1.48;0.70;;;20.80;41.40;;;;;;5072825;28;20031;-58
2021/01/13 06:43:13;;;;;;;2.95;0.60;;;20.80;41.40;;;;;;5090925;28;20032;-58
2021/01/13 06:45:39;;;;;;;1.25;0.60;;;20.80;41.30;;;;;;5091163;28;20031;-58
2021/01/13 06:48:05;;;;;;;2.13;0.90;;;20.80;41.30;;;;;;5086447;28;20559;-58
2021/01/13 06:50:40;;;;;;;1.75;0.60;;;20.80;41.30;;;;;;5089563;28;20029;-58
2021/01/13 06:53:10;;;;;;;0.90;0.60;;;20.80;41.30;;;;;;5087841;28;20036;-58
2021/01/13 06:55:38;;;;;;;1.30;0.63;;;20.80;41.30;;;;;;5091460;28;20024;-58
2021/01/13 06:58:13;;;;;;;2.40;0.90;;;20.80;41.30;;;;;;5085385;28;20021;-59
2021/01/13 07:00:39;;;;;;;1.38;0.60;;;20.80;41.30;;;;;;5091042;28;20056;-58
2021/01/13 07:03:25;;;;;;;1.90;0.80;;;20.80;41.30;;;;;;5087937;28;20028;-58
2021/01/13 07:05:52;;;;;;;1.73;1.25;;;20.80;41.30;;;;;;5070467;28;20541;-59
2021/01/13 07:08:18;;;;;;;1.23;0.60;;;20.80;41.30;;;;;;5089130;28;20119;-58
2021/01/13 07:10:44;;;;;;;2.15;1.00;;;20.80;41.30;;;;;;5088062;28;20016;-59
2021/01/13 07:13:12;;;;;;;2.58;0.77;;;20.80;41.30;;;;;;5072291;28;20039;-58
2021/01/13 07:15:39;;;;;;;1.42;0.80;;;20.80;41.30;;;;;;5091124;28;20039;-58
2021/01/13 07:18:06;;;;;;;1.83;0.70;;;20.80;41.30;;;;;;5087629;28;20012;-58
2021/01/13 07:20:39;;;;;;;2.60;0.65;;;20.80;41.30;;;;;;5091162;28;20020;-58
2021/01/13 07:23:06;;;;;;;1.60;0.70;;;20.80;41.20;;;;;;5087667;28;20099;-58
2021/01/13 07:25:32;;;;;;;1.58;0.68;;;20.80;41.20;;;;;;5088672;28;20384;-58
2021/01/13 07:28:02;;;;;;;1.40;0.60;;;20.80;41.30;;;;;;5071386;28;20044;-58
2021/01/13 07:30:31;;;;;;;1.75;0.75;;;20.80;41.20;;;;;;5087054;28;20050;-58
2021/01/13 07:33:10;;;;;;;2.67;0.93;;;20.80;41.20;;;;;;5089811;28;20032;-58
2021/01/13 07:35:49;;;;;;;1.88;0.68;;;20.80;41.20;;;;;;5091827;28;20035;-58
2021/01/13 07:38:17;;;;;;;3.20;0.80;;;20.80;41.30;;;;;;5089082;28;20038;-59
2021/01/13 07:41:04;;;;;;;1.73;0.80;;;20.80;41.20;;;;;;5086830;28;20032;-59
2021/01/13 07:43:51;;;;;;;1.35;0.60;;;20.80;41.20;;;;;;5091733;28;20058;-58
2021/01/13 07:46:26;;;;;;;3.78;0.70;;;20.80;41.20;;;;;;5092136;28;20039;-58
2021/01/13 07:49:16;;;;;;;1.35;0.57;;;20.90;41.30;;;;;;5090795;28;20028;-59
2021/01/13 07:51:57;;;;;;;3.47;0.73;;;20.90;41.30;;;;;;5092102;28;20031;-59
2021/01/13 07:54:33;;;;;;;2.13;0.90;;;20.90;41.50;;;;;;5108377;28;20115;-59
2021/01/13 07:57:07;;;;;;;4.90;2.28;;;20.90;41.60;;;;;;5072423;28;20426;-60
2021/01/13 08:00:01;;;;;;;2.78;1.00;;;20.90;41.70;;;;;;5088418;28;20077;-59
2021/01/13 08:02:55;;;;;;;1.55;0.68;;;20.90;41.70;;;;;;5090357;28;20430;-59
2021/01/13 08:05:58;;;;;;;3.83;0.90;;;20.90;41.60;;;;;;5096896;28;20028;-59
2021/01/13 08:08:25;;;;;;;2.33;0.80;;;20.90;41.70;;;;;;5088346;28;20032;-59
2021/01/13 08:10:53;;;;;;;2.65;0.60;;;20.90;41.70;;;;;;5092081;28;20024;-60
2021/01/13 08:13:40;;;;;;;1.38;0.50;;;20.90;41.70;;;;;;5097290;28;20479;-59
2021/01/13 08:16:45;;;;;;;1.77;0.60;;;20.90;41.70;;;;;;5094968;28;20034;-56
2021/01/13 08:20:26;;;;;;;2.72;1.10;;;20.90;41.70;;;;;;5011813;28;20030;-57
2021/01/13 08:23:12;;;;;;;;;;;;;;;;;;;;;
2021/01/13 08:25:51;;;;;;;2.03;0.70;;;21.00;41.60;;;;;;4933163;29;20044;-58
2021/01/13 08:28:20;;;;;;;3.78;0.77;;;21.00;41.50;;;;;;4985121;28;20058;-62
2021/01/13 08:30:49;;;;;;;1.98;0.50;;;21.10;41.60;;;;;;4995265;28;20517;-61
2021/01/13 08:33:23;;;;;;;2.20;1.08;;;21.20;41.40;;;;;;4993306;28;20529;-60
2021/01/13 08:36:00;;;;;;;4.10;1.10;;;21.30;41.40;;;;;;4992271;28;20080;-59
2021/01/13 08:38:27;;;;;;;4.20;1.23;;;21.40;41.30;;;;;;4998919;28;20042;-60
2021/01/13 08:40:54;;;;;;;3.47;0.80;;;21.30;41.30;;;;;;4991994;28;20031;-61
2021/01/13 08:43:22;;;;;;;2.00;0.68;;;21.30;41.50;;;;;;4993809;28;20081;-61
2021/01/13 08:45:53;;;;;;;3.05;0.82;;;21.40;41.50;;;;;;5006193;28;20501;-59
2021/01/13 08:48:23;;;;;;;3.67;0.85;;;21.40;41.40;;;;;;4973053;28;20026;-59
2021/01/13 08:51:04;;;;;;;2.78;0.80;;;21.40;41.60;;;;;;5059720;28;20037;-64
2021/01/13 08:53:31;;;;;;;3.93;0.63;;;21.40;41.60;;;;;;5074516;28;20037;-65
2021/01/13 08:55:58;;;;;;;4.38;0.98;;;21.50;41.60;;;;;;5108474;28;20074;-62
2021/01/13 08:58:28;;;;;;;1.80;0.77;;;21.50;41.70;;;;;;5093890;28;20392;-64
2021/01/13 09:01:13;;;;;;;2.83;0.90;;;21.40;41.70;;;;;;5092747;28;20027;-62
2021/01/13 09:03:41;;;;;;;3.63;0.70;;;21.40;41.70;;;;;;5094525;28;20034;-67
2021/01/13 09:06:24;;;;;;;5.82;0.98;;;21.50;41.80;;;;;;5089141;28;20468;-62
2021/01/13 09:08:53;;;;;;;1.58;0.85;;;21.50;41.90;;;;;;5083015;28;20365;-63
2021/01/13 09:11:32;;;;;;;1.58;0.70;;;21.50;41.70;;;;;;5095252;28;20028;-66
2021/01/13 09:14:20;;;;;;;3.47;0.85;;;21.50;41.80;;;;;;5077150;28;20043;-64
2021/01/13 09:16:54;;;;;;;5.07;0.80;;;21.50;41.50;;;;;;5099636;28;20027;-71
2021/01/13 09:19:38;;;;;;;2.28;0.60;;;21.60;41.60;;;;;;5087430;28;20119;-65
2021/01/13 09:22:11;;;;;;;3.65;0.80;;;21.60;41.80;;;;;;5067684;28;20395;-65
2021/01/13 09:24:38;;;;;;;1.98;0.68;;;21.50;41.70;;;;;;5091935;28;20427;-67
2021/01/13 09:27:06;;;;;;;2.78;0.75;;;21.60;41.80;;;;;;5102139;28;20172;-67
2021/01/13 09:30:07;;;;;;;2.03;0.80;;;21.60;41.80;;;;;;5095398;28;20032;-65
2021/01/13 09:32:50;;;;;;;7.45;1.30;;;21.50;42.00;;;;;;5082566;28;20040;-61
2021/01/13 09:35:28;;;;;;;3.00;0.90;;;21.60;41.80;;;;;;5102589;28;20039;-63
2021/01/13 09:37:56;;;;;;;4.38;0.98;;;21.60;41.80;;;;;;5093373;28;20380;-62
2021/01/13 09:40:22;;;;;;;3.83;1.00;;;21.50;42.10;;;;;;5087809;28;20055;-64
2021/01/13 09:42:57;;;;;;;1.83;0.93;;;21.60;41.80;;;;;;5095027;28;20039;-65
2021/01/13 09:45:37;;;;;;;3.65;0.80;;;21.50;42.00;;;;;;5090773;28;20055;-64
2021/01/13 09:48:19;;;;;;;3.83;0.90;;;21.50;42.00;;;;;;5090759;28;20028;-63
2021/01/13 09:50:45;;;;;;;7.03;1.58;;;21.50;42.20;;;;;;5093656;28;20028;-63
2021/01/13 09:53:14;;;;;;;3.22;0.90;;;21.40;42.30;;;;;;5094051;28;20125;-64
2021/01/13 09:55:40;;;;;;;3.40;0.90;;;21.40;42.30;;;;;;5093559;28;20034;-63
2021/01/13 09:58:17;;;;;;;3.25;0.75;;;21.40;42.40;;;;;;5107702;28;20050;-76
2021/01/13 10:00:43;;;;;;;1.70;0.82;;;21.40;42.40;;;;;;5104714;28;20027;-71
2021/01/13 10:03:11;;;;;;;1.50;0.63;;;21.40;42.50;;;;;;5108354;28;20028;-69
2021/01/13 10:05:37;;;;;;;2.15;0.70;;;21.40;43.10;;;;;;5092881;28;20039;-71
2021/01/13 10:08:03;;;;;;;1.40;0.70;;;21.30;42.50;;;;;;5092707;28;20073;-69
2021/01/13 10:10:30;;;;;;;2.00;1.00;;;21.30;42.50;;;;;;5102633;28;20032;-62
2021/01/13 10:12:57;;;;;;;2.38;0.70;;;21.30;42.50;;;;;;5101539;28;20032;-64
2021/01/13 10:15:23;;;;;;;1.13;0.55;;;21.30;42.60;;;;;;5094103;28;20032;-64
2021/01/13 10:17:49;;;;;;;1.08;0.57;;;21.30;42.60;;;;;;5095016;28;20024;-65
2021/01/13 10:20:18;;;;;;;1.77;0.60;;;21.30;43.10;;;;;;5111194;28;20028;-63
2021/01/13 10:22:45;;;;;;;3.53;0.70;;;21.20;43.20;;;;;;5113453;28;20035;-63
2021/01/13 10:25:22;;;;;;;2.63;0.82;;;21.30;43.20;;;;;;5101536;28;20063;-63
2021/01/13 10:27:48;;;;;;;1.70;0.77;;;21.20;43.10;;;;;;5092402;28;20130;-65
2021/01/13 10:30:14;;;;;;;2.85;0.85;;;21.20;43.20;;;;;;5089274;28;20206;-63
2021/01/13 10:32:51;;;;;;;2.67;0.80;;;21.20;43.10;;;;;;5090515;28;20031;-63
2021/01/13 10:35:18;;;;;;;1.27;0.60;;;21.20;43.10;;;;;;5092228;28;20036;-73
2021/01/13 10:38:02;;;;;;;1.48;1.02;;;21.20;43.10;;;;;;5092536;28;20057;-71
2021/01/13 10:40:28;;;;;;;2.53;0.93;;;21.20;43.10;;;;;;5067755;28;20040;-68
2021/01/13 10:42:55;;;;;;;2.47;0.60;;;21.20;43.20;;;;;;5109286;28;20106;-70
2021/01/13 10:45:23;;;;;;;1.67;0.80;;;21.20;43.20;;;;;;5111117;28;20028;-70
2021/01/13 10:48:02;;;;;;;2.53;0.88;;;21.20;43.20;;;;;;5112429;28;20099;-71
2021/01/13 10:50:30;;;;;;;1.60;0.80;;;21.20;43.20;;;;;;5110599;28;20028;-74
2021/01/13 10:53:00;;;;;;;2.42;0.93;;;21.20;43.20;;;;;;5090646;28;20031;-69
2021/01/13 10:55:28;;;;;;;1.60;0.85;;;21.10;43.20;;;;;;5109146;28;20036;-72
2021/01/13 10:57:57;;;;;;;1.80;1.05;;;21.20;43.20;;;;;;5089579;28;20039;-69
2021/01/13 11:00:30;;;;;;;2.58;0.60;;;21.10;43.20;;;;;;5089690;28;20465;-69
2021/01/13 11:02:57;;;;;;;1.90;0.70;;;21.10;43.20;;;;;;5090286;28;20166;-68
2021/01/13 11:05:24;;;;;;;1.67;0.60;;;21.20;43.20;;;;;;5091594;28;20027;-68
2021/01/13 11:07:51;;;;;;;1.73;0.65;;;21.20;43.20;;;;;;5102372;28;20031;-70
2021/01/13 11:10:22;;;;;;;2.65;0.60;;;21.10;43.10;;;;;;5090617;28;20043;-69
2021/01/13 11:12:58;;;;;;;2.80;0.70;;;21.10;43.10;;;;;;5090651;28;20067;-71
2021/01/13 11:15:24;;;;;;;3.45;0.77;;;21.20;43.10;;;;;;5076975;28;20266;-68
2021/01/13 11:17:56;;;;;;;1.08;0.80;;;21.10;43.10;;;;;;5090590;28;20024;-70
2021/01/13 11:20:23;;;;;;;1.40;0.70;;;21.10;43.10;;;;;;5091701;28;20469;-69
2021/01/13 11:22:51;;;;;;;3.55;0.60;;;21.10;43.70;;;;;;5091997;28;20044;-69
2021/01/13 11:25:36;;;;;;;2.17;0.60;;;21.10;43.10;;;;;;5092113;28;20024;-69
2021/01/13 11:28:10;;;;;;;2.05;0.68;;;21.10;43.10;;;;;;5090769;28;20040;-69
2021/01/13 11:30:41;;;;;;;2.38;0.85;;;21.10;43.10;;;;;;5088502;28;20081;-70
2021/01/13 11:33:09;;;;;;;1.58;0.80;;;21.10;43.20;;;;;;5079917;28;20039;-63
2021/01/13 11:35:40;;;;;;;4.40;0.90;;;21.10;43.20;;;;;;5092540;28;20046;-70
2021/01/13 11:38:34;;;;;;;2.03;0.90;;;21.10;43.20;;;;;;5090117;28;20059;-71
2021/01/13 11:41:18;;;;;;;3.92;0.70;;;21.10;43.20;;;;;;5082489;28;20039;-73
2021/01/13 11:43:49;;;;;;;2.97;0.50;;;21.00;43.10;;;;;;5091396;28;20038;-72
2021/01/13 11:46:28;;;;;;;1.93;0.70;;;21.00;43.10;;;;;;5082025;28;20060;-64
2021/01/13 11:49:25;;;;;;;2.05;0.73;;;21.00;43.00;;;;;;5070539;28;20373;-66
2021/01/13 11:51:53;;;;;;;2.47;0.50;;;21.00;43.00;;;;;;5071024;28;20028;-67
2021/01/13 11:54:31;;;;;;;3.20;0.60;;;21.00;43.00;;;;;;5106601;28;20043;-66
2021/01/13 11:57:19;;;;;;;3.33;0.77;;;21.00;42.80;;;;;;5110634;28;20034;-73
2021/01/13 11:59:45;;;;;;;4.55;1.00;;;21.00;42.90;;;;;;5104212;28;20024;-70
2021/01/13 12:02:29;;;;;;;2.15;0.60;;;21.00;42.90;;;;;;5075127;28;20036;-65
2021/01/13 12:04:55;;;;;;;1.25;0.63;;;21.00;42.90;;;;;;5087785;28;20021;-70
2021/01/13 12:07:20;;;;;;;3.05;0.60;;;21.00;42.90;;;;;;5089028;28;20021;-72
2021/01/13 12:10:06;;;;;;;3.35;0.80;;;21.00;43.20;;;;;;5094811;28;20028;-70
2021/01/13 12:12:32;;;;;;;7.50;1.02;;;21.00;43.40;;;;;;5083458;28;20051;-72
2021/01/13 12:15:11;;;;;;;3.97;1.00;;;21.00;43.60;;;;;;5101965;28;20495;-72
2021/01/13 12:17:53;;;;;;;2.38;0.88;;;21.00;43.40;;;;;;5091409;28;20410;-72
2021/01/13 12:20:32;;;;;;;3.92;1.02;;;21.00;43.70;;;;;;5099513;28;20464;-73
2021/01/13 12:22:58;;;;;;;6.60;0.70;;;21.00;43.80;;;;;;5093752;28;20787;-70
2021/01/13 12:25:24;;;;;;;8.00;1.10;;;21.00;44.10;;;;;;5088031;28;20069;-72
2021/01/13 12:28:04;;;;;;;3.67;0.70;;;21.10;44.80;;;;;;5089588;28;20399;-62
2021/01/13 12:30:30;;;;;;;2.80;1.00;;;20.80;40.30;;;;;;5081888;28;20044;-70
2021/01/13 12:32:57;;;;;;;4.60;0.82;;;20.60;38.10;;;;;;5093673;28;20028;-73
2021/01/13 12:35:28;;;;;;;3.28;1.15;;;20.60;37.60;;;;;;5085048;28;20077;-70
2021/01/13 12:37:54;;;;;;;3.75;0.82;;;20.60;42.50;;;;;;5087622;28;20476;-66
2021/01/13 12:40:32;;;;;;;4.43;1.50;;;20.70;44.90;;;;;;5083402;28;20055;-72
2021/01/13 12:43:19;;;;;;;3.60;1.00;;;20.70;44.60;;;;;;5088740;28;20434;-73
2021/01/13 12:45:46;;;;;;;5.40;0.90;;;20.70;45.00;;;;;;5094365;28;20020;-68
2021/01/13 12:48:13;;;;;;;4.75;1.10;;;20.80;44.90;;;;;;5093229;28;20024;-65
2021/01/13 12:50:40;;;;;;;2.78;0.95;;;20.80;44.90;;;;;;5097066;28;20035;-69
2021/01/13 12:53:06;;;;;;;3.95;1.08;;;20.90;44.70;;;;;;5114147;28;20445;-69
2021/01/13 12:55:32;;;;;;;10.05;1.58;;;20.90;44.80;;;;;;5115243;28;20063;-68
2021/01/13 12:57:57;;;;;;;6.72;1.10;;;21.00;44.60;;;;;;5113962;28;20054;-70
2021/01/13 13:00:24;;;;;;;7.20;0.98;;;21.00;44.50;;;;;;5109331;28;20053;-63
2021/01/13 13:02:50;;;;;;;8.25;1.15;;;21.00;44.80;;;;;;5098561;28;20520;-68
2021/01/13 13:05:16;;;;;;;4.85;0.93;;;21.00;44.90;;;;;;5093049;28;20930;-68
2021/01/13 13:07:43;;;;;;;5.93;0.85;;;21.10;44.70;;;;;;5091751;28;20024;-71
2021/01/13 13:10:09;;;;;;;3.70;0.90;;;21.10;44.70;;;;;;5095039;28;20051;-72
2021/01/13 13:12:35;;;;;;;1.95;0.77;;;21.10;44.60;;;;;;5093983;28;20043;-73
2021/01/13 13:15:00;;;;;;;3.60;0.85;;;21.20;44.90;;;;;;5093613;28;20103;-68